sensor_id;sensor_type;location;lat;lon;timestamp;temperature;humidity
38936;DHT22;25541;47.458;9.644;2022-07-23T03:03:29;21.40;99.90
38936;DHT22;25541;47.458;9.644;2022-07-23T03:05:55;21.40;99.90
38936;DHT22;25541;47.458;9.644;2022-07-23T03:08:21;21.50;97.90
38936;DHT22;25541;47.458;9.644;2022-07-23T03:10:46;21.60;98.20
38936;DHT22;25541;47.458;9.644;2022-07-23T03:13:12;21.50;98.10
38936;DHT22;25541;47.458;9.644;2022-07-23T03:15:38;21.60;96.20
38936;DHT22;25541;47.458;9.644;2022-07-23T03:18:04;21.70;94.70
38936;DHT22;25541;47.458;9.644;2022-07-23T03:20:29;21.70;94.60
38936;DHT22;25541;47.458;9.644;2022-07-23T03:22:55;21.70;95.10
38936;DHT22;25541;47.458;9.644;2022-07-23T03:25:21;21.70;94.90
38936;DHT22;25541;47.458;9.644;2022-07-23T03:27:47;21.70;94.50
38936;DHT22;25541;47.458;9.644;2022-07-23T03:30:12;21.70;94.80
38936;DHT22;25541;47.458;9.644;2022-07-23T03:32:38;21.60;95.30
38936;DHT22;25541;47.458;9.644;2022-07-23T03:35:05;21.60;95.30
38936;DHT22;25541;47.458;9.644;2022-07-23T03:37:30;21.70;95.20
38936;DHT22;25541;47.458;9.644;2022-07-23T03:39:56;21.70;94.70
38936;DHT22;25541;47.458;9.644;2022-07-23T03:42:22;21.70;93.90
38936;DHT22;25541;47.458;9.644;2022-07-23T03:44:47;21.70;92.20
38936;DHT22;25541;47.458;9.644;2022-07-23T03:47:13;21.80;92.10
38936;DHT22;25541;47.458;9.644;2022-07-23T03:49:39;21.80;91.20
38936;DHT22;25541;47.458;9.644;2022-07-23T03:52:05;21.90;91.30
38936;DHT22;25541;47.458;9.644;2022-07-23T03:54:31;21.90;90.20
38936;DHT22;25541;47.458;9.644;2022-07-23T03:56:56;22.00;90.00
38936;DHT22;25541;47.458;9.644;2022-07-23T03:59:22;22.00;90.40
38936;DHT22;25541;47.458;9.644;2022-07-23T04:01:48;22.00;91.80
38936;DHT22;25541;47.458;9.644;2022-07-23T04:04:13;21.90;93.40
38936;DHT22;25541;47.458;9.644;2022-07-23T04:06:39;21.80;94.50
38936;DHT22;25541;47.458;9.644;2022-07-23T04:09:05;21.70;95.00
38936;DHT22;25541;47.458;9.644;2022-07-23T04:11:30;21.70;95.60
38936;DHT22;25541;47.458;9.644;2022-07-23T04:13:56;21.70;95.40
38936;DHT22;25541;47.458;9.644;2022-07-23T04:16:22;21.80;93.40
38936;DHT22;25541;47.458;9.644;2022-07-23T04:18:47;21.90;93.00
38936;DHT22;25541;47.458;9.644;2022-07-23T04:21:13;21.90;92.70
38936;DHT22;25541;47.458;9.644;2022-07-23T04:23:39;21.90;93.00
38936;DHT22;25541;47.458;9.644;2022-07-23T04:26:05;22.00;92.50
38936;DHT22;25541;47.458;9.644;2022-07-23T04:28:30;22.00;92.90
38936;DHT22;25541;47.458;9.644;2022-07-23T04:30:57;21.80;94.20
38936;DHT22;25541;47.458;9.644;2022-07-23T04:33:23;21.60;95.00
38936;DHT22;25541;47.458;9.644;2022-07-23T04:35:48;21.40;96.30
38936;DHT22;25541;47.458;9.644;2022-07-23T04:38:14;21.30;98.40
38936;DHT22;25541;47.458;9.644;2022-07-23T04:40:40;21.20;98.70
38936;DHT22;25541;47.458;9.644;2022-07-23T04:43:05;21.20;98.10
38936;DHT22;25541;47.458;9.644;2022-07-23T04:45:31;20.90;99.90
38936;DHT22;25541;47.458;9.644;2022-07-23T04:47:57;20.90;99.90
38936;DHT22;25541;47.458;9.644;2022-07-23T04:50:23;20.90;99.90
38936;DHT22;25541;47.458;9.644;2022-07-23T04:52:49;20.90;99.90
38936;DHT22;25541;47.458;9.644;2022-07-23T04:55:16;21.00;99.90
38936;DHT22;25541;47.458;9.644;2022-07-23T04:57:41;21.00;99.90
38936;DHT22;25541;47.458;9.644;2022-07-23T05:00:08;20.90;99.90
38936;DHT22;25541;47.458;9.644;2022-07-23T05:02:34;20.70;99.50
38936;DHT22;25541;47.458;9.644;2022-07-23T05:04:59;20.90;99.30
38936;DHT22;25541;47.458;9.644;2022-07-23T05:07:25;21.00;96.90
38936;DHT22;25541;47.458;9.644;2022-07-23T05:09:51;21.20;96.00
38936;DHT22;25541;47.458;9.644;2022-07-23T05:12:16;21.30;95.80
38936;DHT22;25541;47.458;9.644;2022-07-23T05:14:42;21.40;97.50
38936;DHT22;25541;47.458;9.644;2022-07-23T05:17:08;21.40;98.70
38936;DHT22;25541;47.458;9.644;2022-07-23T05:19:34;21.50;99.40
38936;DHT22;25541;47.458;9.644;2022-07-23T05:22:00;21.50;99.90
38936;DHT22;25541;47.458;9.644;2022-07-23T05:24:26;21.50;99.90
38936;DHT22;25541;47.458;9.644;2022-07-23T05:26:52;21.60;99.90
38936;DHT22;25541;47.458;9.644;2022-07-23T05:29:18;21.70;99.90
38936;DHT22;25541;47.458;9.644;2022-07-23T05:31:44;21.70;99.90
38936;DHT22;25541;47.458;9.644;2022-07-23T05:34:10;21.80;99.90
38936;DHT22;25541;47.458;9.644;2022-07-23T05:36:36;21.80;99.90
38936;DHT22;25541;47.458;9.644;2022-07-23T05:39:02;21.80;99.90
38936;DHT22;25541;47.458;9.644;2022-07-23T05:41:28;21.70;99.90
38936;DHT22;25541;47.458;9.644;2022-07-23T05:43:53;21.70;99.90
38936;DHT22;25541;47.458;9.644;2022-07-23T05:46:19;21.70;99.90
38936;DHT22;25541;47.458;9.644;2022-07-23T05:48:45;21.80;99.90
38936;DHT22;25541;47.458;9.644;2022-07-23T05:51:24;21.80;99.90
38936;DHT22;25541;47.458;9.644;2022-07-23T05:53:50;21.90;99.90
38936;DHT22;25541;47.458;9.644;2022-07-23T05:56:17;22.00;99.90
38936;DHT22;25541;47.458;9.644;2022-07-23T05:58:43;22.20;99.90
38936;DHT22;25541;47.458;9.644;2022-07-23T06:01:09;22.50;99.90
38936;DHT22;25541;47.458;9.644;2022-07-23T06:03:37;22.90;99.00
38936;DHT22;25541;47.458;9.644;2022-07-23T06:06:03;23.30;98.50
38936;DHT22;25541;47.458;9.644;2022-07-23T06:08:29;23.70;97.10
38936;DHT22;25541;47.458;9.644;2022-07-23T06:10:54;23.90;95.70
38936;DHT22;25541;47.458;9.644;2022-07-23T06:13:21;23.90;95.40
38936;DHT22;25541;47.458;9.644;2022-07-23T06:15:46;23.90;94.70
38936;DHT22;25541;47.458;9.644;2022-07-23T06:18:12;23.70;94.90
38936;DHT22;25541;47.458;9.644;2022-07-23T06:20:38;23.70;94.90
38936;DHT22;25541;47.458;9.644;2022-07-23T06:23:04;23.50;95.20
38936;DHT22;25541;47.458;9.644;2022-07-23T06:25:30;23.50;95.00
38936;DHT22;25541;47.458;9.644;2022-07-23T06:27:56;23.40;95.70
38936;DHT22;25541;47.458;9.644;2022-07-23T06:30:21;23.40;95.40
38936;DHT22;25541;47.458;9.644;2022-07-23T06:32:48;23.40;95.40
38936;DHT22;25541;47.458;9.644;2022-07-23T06:35:14;23.40;94.40
38936;DHT22;25541;47.458;9.644;2022-07-23T06:37:41;23.40;93.40
38936;DHT22;25541;47.458;9.644;2022-07-23T06:40:07;23.30;93.10
38936;DHT22;25541;47.458;9.644;2022-07-23T06:42:33;23.40;92.30
38936;DHT22;25541;47.458;9.644;2022-07-23T06:44:59;23.50;91.30
38936;DHT22;25541;47.458;9.644;2022-07-23T06:47:24;23.40;90.70
38936;DHT22;25541;47.458;9.644;2022-07-23T06:49:50;23.40;90.90
38936;DHT22;25541;47.458;9.644;2022-07-23T06:52:16;23.50;90.00
38936;DHT22;25541;47.458;9.644;2022-07-23T06:54:41;23.60;89.60
38936;DHT22;25541;47.458;9.644;2022-07-23T06:57:07;23.50;90.00
38936;DHT22;25541;47.458;9.644;2022-07-23T06:59:33;23.60;89.00
38936;DHT22;25541;47.458;9.644;2022-07-23T07:02:01;23.60;89.30
38936;DHT22;25541;47.458;9.644;2022-07-23T07:04:27;23.40;90.20
38936;DHT22;25541;47.458;9.644;2022-07-23T07:06:53;23.20;90.80
38936;DHT22;25541;47.458;9.644;2022-07-23T07:09:18;23.10;91.50
38936;DHT22;25541;47.458;9.644;2022-07-23T07:11:46;23.10;92.30
38936;DHT22;25541;47.458;9.644;2022-07-23T07:14:11;23.00;93.00
38936;DHT22;25541;47.458;9.644;2022-07-23T07:16:37;23.00;93.30
38936;DHT22;25541;47.458;9.644;2022-07-23T07:19:02;23.00;93.20
38936;DHT22;25541;47.458;9.644;2022-07-23T07:21:28;23.10;92.60
38936;DHT22;25541;47.458;9.644;2022-07-23T07:23:54;23.20;92.50
38936;DHT22;25541;47.458;9.644;2022-07-23T07:26:20;23.20;91.80
38936;DHT22;25541;47.458;9.644;2022-07-23T07:28:45;23.20;91.70
38936;DHT22;25541;47.458;9.644;2022-07-23T07:31:11;22.80;91.90
38936;DHT22;25541;47.458;9.644;2022-07-23T07:33:37;22.90;92.20
38936;DHT22;25541;47.458;9.644;2022-07-23T07:36:03;22.80;92.10
38936;DHT22;25541;47.458;9.644;2022-07-23T07:38:29;22.80;92.40
38936;DHT22;25541;47.458;9.644;2022-07-23T07:40:55;22.80;92.20
38936;DHT22;25541;47.458;9.644;2022-07-23T07:43:20;22.80;91.80
38936;DHT22;25541;47.458;9.644;2022-07-23T07:45:46;22.90;92.30
38936;DHT22;25541;47.458;9.644;2022-07-23T07:48:12;22.80;93.50
38936;DHT22;25541;47.458;9.644;2022-07-23T07:50:38;22.40;93.50
38936;DHT22;25541;47.458;9.644;2022-07-23T07:53:03;22.10;94.40
38936;DHT22;25541;47.458;9.644;2022-07-23T07:55:29;22.30;95.70
38936;DHT22;25541;47.458;9.644;2022-07-23T07:57:55;22.40;95.80
38936;DHT22;25541;47.458;9.644;2022-07-23T08:00:20;22.40;93.70
38936;DHT22;25541;47.458;9.644;2022-07-23T08:02:48;22.50;94.60
38936;DHT22;25541;47.458;9.644;2022-07-23T08:05:14;22.50;95.40
38936;DHT22;25541;47.458;9.644;2022-07-23T08:07:43;22.50;94.90
38936;DHT22;25541;47.458;9.644;2022-07-23T08:10:09;22.50;94.00
38936;DHT22;25541;47.458;9.644;2022-07-23T08:13:01;22.60;93.20
38936;DHT22;25541;47.458;9.644;2022-07-23T08:15:29;22.80;94.10
38936;DHT22;25541;47.458;9.644;2022-07-23T08:17:56;22.90;94.40
38936;DHT22;25541;47.458;9.644;2022-07-23T08:20:24;22.90;92.60
38936;DHT22;25541;47.458;9.644;2022-07-23T08:23:02;22.70;94.20
38936;DHT22;25541;47.458;9.644;2022-07-23T08:25:33;22.80;94.10
38936;DHT22;25541;47.458;9.644;2022-07-23T08:28:00;23.00;93.90
38936;DHT22;25541;47.458;9.644;2022-07-23T08:30:29;23.10;93.50
38936;DHT22;25541;47.458;9.644;2022-07-23T08:32:56;23.20;93.40
38936;DHT22;25541;47.458;9.644;2022-07-23T08:35:37;23.40;92.70
38936;DHT22;25541;47.458;9.644;2022-07-23T08:38:05;23.60;92.30
38936;DHT22;25541;47.458;9.644;2022-07-23T08:40:33;23.60;92.50
38936;DHT22;25541;47.458;9.644;2022-07-23T08:42:59;23.80;92.50
38936;DHT22;25541;47.458;9.644;2022-07-23T08:45:27;24.10;90.20
38936;DHT22;25541;47.458;9.644;2022-07-23T08:47:57;23.80;90.90
38936;DHT22;25541;47.458;9.644;2022-07-23T08:50:26;23.50;92.30
38936;DHT22;25541;47.458;9.644;2022-07-23T08:52:53;23.20;94.60
38936;DHT22;25541;47.458;9.644;2022-07-23T08:55:21;22.40;98.10
38936;DHT22;25541;47.458;9.644;2022-07-23T08:57:49;22.30;99.90
38936;DHT22;25541;47.458;9.644;2022-07-23T09:00:15;22.40;99.90
38936;DHT22;25541;47.458;9.644;2022-07-23T09:02:43;22.40;99.90
38936;DHT22;25541;47.458;9.644;2022-07-23T09:05:10;22.70;99.90
38936;DHT22;25541;47.458;9.644;2022-07-23T09:07:37;23.00;98.20
38936;DHT22;25541;47.458;9.644;2022-07-23T09:10:09;22.80;97.90
38936;DHT22;25541;47.458;9.644;2022-07-23T09:12:36;22.80;99.50
38936;DHT22;25541;47.458;9.644;2022-07-23T09:15:08;23.10;97.20
38936;DHT22;25541;47.458;9.644;2022-07-23T09:17:42;23.10;96.80
38936;DHT22;25541;47.458;9.644;2022-07-23T09:20:16;23.00;95.50
38936;DHT22;25541;47.458;9.644;2022-07-23T09:22:47;22.90;99.20
38936;DHT22;25541;47.458;9.644;2022-07-23T09:25:15;23.40;99.70
38936;DHT22;25541;47.458;9.644;2022-07-23T09:27:54;23.70;97.60
38936;DHT22;25541;47.458;9.644;2022-07-23T09:30:22;23.90;98.20
38936;DHT22;25541;47.458;9.644;2022-07-23T09:38:16;24.30;96.30
38936;DHT22;25541;47.458;9.644;2022-07-23T09:40:43;24.20;94.80
38936;DHT22;25541;47.458;9.644;2022-07-23T09:43:09;24.20;93.40
38936;DHT22;25541;47.458;9.644;2022-07-23T09:45:35;23.90;93.80
38936;DHT22;25541;47.458;9.644;2022-07-23T09:50:37;23.60;95.90
38936;DHT22;25541;47.458;9.644;2022-07-23T09:53:02;23.50;95.60
38936;DHT22;25541;47.458;9.644;2022-07-23T09:55:33;23.40;96.50
38936;DHT22;25541;47.458;9.644;2022-07-23T09:58:03;23.40;97.20
38936;DHT22;25541;47.458;9.644;2022-07-23T10:00:31;23.60;98.80
38936;DHT22;25541;47.458;9.644;2022-07-23T10:02:58;23.90;97.30
38936;DHT22;25541;47.458;9.644;2022-07-23T10:05:24;24.30;97.00
38936;DHT22;25541;47.458;9.644;2022-07-23T10:07:51;23.80;96.30
38936;DHT22;25541;47.458;9.644;2022-07-23T10:10:18;24.00;96.80
38936;DHT22;25541;47.458;9.644;2022-07-23T10:12:44;24.40;95.50
38936;DHT22;25541;47.458;9.644;2022-07-23T10:15:30;24.60;93.90
38936;DHT22;25541;47.458;9.644;2022-07-23T10:17:55;24.90;93.30
38936;DHT22;25541;47.458;9.644;2022-07-23T10:20:21;25.30;91.90
38936;DHT22;25541;47.458;9.644;2022-07-23T10:22:56;25.40;90.50
38936;DHT22;25541;47.458;9.644;2022-07-23T10:25:36;25.60;89.60
38936;DHT22;25541;47.458;9.644;2022-07-23T10:28:26;25.70;86.10
38936;DHT22;25541;47.458;9.644;2022-07-23T10:31:17;25.70;86.80
38936;DHT22;25541;47.458;9.644;2022-07-23T10:33:56;25.60;87.80
38936;DHT22;25541;47.458;9.644;2022-07-23T10:36:40;25.30;90.20
38936;DHT22;25541;47.458;9.644;2022-07-23T10:39:26;24.90;92.30
38936;DHT22;25541;47.458;9.644;2022-07-23T10:42:11;24.70;93.10
38936;DHT22;25541;47.458;9.644;2022-07-23T10:44:48;24.00;93.70
38936;DHT22;25541;47.458;9.644;2022-07-23T10:47:28;23.90;94.40
38936;DHT22;25541;47.458;9.644;2022-07-23T10:50:24;24.30;95.90
38936;DHT22;25541;47.458;9.644;2022-07-23T10:53:15;24.60;95.30
38936;DHT22;25541;47.458;9.644;2022-07-23T10:55:47;24.70;94.40
38936;DHT22;25541;47.458;9.644;2022-07-23T10:58:19;24.90;93.80
38936;DHT22;25541;47.458;9.644;2022-07-23T11:00:44;25.30;94.60
38936;DHT22;25541;47.458;9.644;2022-07-23T11:03:34;25.70;90.40
38936;DHT22;25541;47.458;9.644;2022-07-23T11:06:03;26.10;89.20
38936;DHT22;25541;47.458;9.644;2022-07-23T11:08:29;26.30;88.50
38936;DHT22;25541;47.458;9.644;2022-07-23T11:13:38;27.00;82.80
38936;DHT22;25541;47.458;9.644;2022-07-23T11:18:57;26.20;81.70
38936;DHT22;25541;47.458;9.644;2022-07-23T11:24:09;25.60;82.60
38936;DHT22;25541;47.458;9.644;2022-07-23T11:26:45;25.60;84.00
38936;DHT22;25541;47.458;9.644;2022-07-23T11:34:40;25.30;84.20
38936;DHT22;25541;47.458;9.644;2022-07-23T11:37:10;25.40;83.90
38936;DHT22;25541;47.458;9.644;2022-07-23T11:39:36;25.90;84.60
38936;DHT22;25541;47.458;9.644;2022-07-23T11:42:04;26.60;81.90
38936;DHT22;25541;47.458;9.644;2022-07-23T11:44:37;27.00;80.70
38936;DHT22;25541;47.458;9.644;2022-07-23T11:47:10;27.20;81.00
38936;DHT22;25541;47.458;9.644;2022-07-23T11:49:58;27.70;79.40
38936;DHT22;25541;47.458;9.644;2022-07-23T11:52:25;27.90;76.20
38936;DHT22;25541;47.458;9.644;2022-07-23T11:55:00;27.50;76.20
38936;DHT22;25541;47.458;9.644;2022-07-23T11:57:34;26.90;78.50
38936;DHT22;25541;47.458;9.644;2022-07-23T12:00:09;26.50;79.50
38936;DHT22;25541;47.458;9.644;2022-07-23T12:02:37;26.30;79.00
38936;DHT22;25541;47.458;9.644;2022-07-23T12:05:04;26.60;79.30
38936;DHT22;25541;47.458;9.644;2022-07-23T12:07:38;26.30;80.30
38936;DHT22;25541;47.458;9.644;2022-07-23T12:10:17;26.20;80.20
38936;DHT22;25541;47.458;9.644;2022-07-23T12:15:23;26.30;79.90
38936;DHT22;25541;47.458;9.644;2022-07-23T12:17:50;26.40;79.70
38936;DHT22;25541;47.458;9.644;2022-07-23T12:20:18;26.30;79.50
38936;DHT22;25541;47.458;9.644;2022-07-23T12:22:50;26.50;80.50
38936;DHT22;25541;47.458;9.644;2022-07-23T12:25:18;27.00;79.40
38936;DHT22;25541;47.458;9.644;2022-07-23T12:27:45;27.20;76.60
38936;DHT22;25541;47.458;9.644;2022-07-23T12:32:47;27.30;77.10
38936;DHT22;25541;47.458;9.644;2022-07-23T12:35:13;27.10;78.70
38936;DHT22;25541;47.458;9.644;2022-07-23T12:37:42;26.90;77.80
38936;DHT22;25541;47.458;9.644;2022-07-23T12:40:30;27.00;78.00
38936;DHT22;25541;47.458;9.644;2022-07-23T12:43:00;27.30;76.80
38936;DHT22;25541;47.458;9.644;2022-07-23T12:45:27;27.30;74.40
38936;DHT22;25541;47.458;9.644;2022-07-23T12:48:00;27.30;73.90
38936;DHT22;25541;47.458;9.644;2022-07-23T12:53:20;27.10;75.70
38936;DHT22;25541;47.458;9.644;2022-07-23T12:55:47;27.20;76.90
38936;DHT22;25541;47.458;9.644;2022-07-23T12:58:19;27.30;76.60
38936;DHT22;25541;47.458;9.644;2022-07-23T13:01:03;27.50;78.00
38936;DHT22;25541;47.458;9.644;2022-07-23T13:03:37;27.60;76.90
38936;DHT22;25541;47.458;9.644;2022-07-23T13:06:05;27.40;76.00
38936;DHT22;25541;47.458;9.644;2022-07-23T13:08:32;27.70;75.80
38936;DHT22;25541;47.458;9.644;2022-07-23T13:10:59;27.80;74.40
38936;DHT22;25541;47.458;9.644;2022-07-23T13:13:27;28.20;72.90
38936;DHT22;25541;47.458;9.644;2022-07-23T13:15:53;28.40;71.50
38936;DHT22;25541;47.458;9.644;2022-07-23T13:18:20;27.80;75.10
38936;DHT22;25541;47.458;9.644;2022-07-23T13:20:47;27.90;74.80
38936;DHT22;25541;47.458;9.644;2022-07-23T13:23:14;27.90;74.30
38936;DHT22;25541;47.458;9.644;2022-07-23T13:25:40;28.30;75.10
38936;DHT22;25541;47.458;9.644;2022-07-23T13:28:06;28.30;73.10
38936;DHT22;25541;47.458;9.644;2022-07-23T13:30:32;28.00;73.60
38936;DHT22;25541;47.458;9.644;2022-07-23T13:32:59;27.80;73.90
38936;DHT22;25541;47.458;9.644;2022-07-23T13:35:25;27.30;76.90
38936;DHT22;25541;47.458;9.644;2022-07-23T13:37:51;27.60;73.50
38936;DHT22;25541;47.458;9.644;2022-07-23T13:40:16;27.80;73.60
38936;DHT22;25541;47.458;9.644;2022-07-23T13:42:42;27.70;75.20
38936;DHT22;25541;47.458;9.644;2022-07-23T13:45:08;27.70;75.50
38936;DHT22;25541;47.458;9.644;2022-07-23T13:47:34;27.80;74.50
38936;DHT22;25541;47.458;9.644;2022-07-23T13:49:59;27.70;74.80
38936;DHT22;25541;47.458;9.644;2022-07-23T13:52:25;28.00;73.70
38936;DHT22;25541;47.458;9.644;2022-07-23T13:54:51;27.90;70.70
38936;DHT22;25541;47.458;9.644;2022-07-23T13:57:17;27.90;72.90
38936;DHT22;25541;47.458;9.644;2022-07-23T13:59:43;28.10;71.00
38936;DHT22;25541;47.458;9.644;2022-07-23T14:02:09;27.80;72.50
38936;DHT22;25541;47.458;9.644;2022-07-23T14:04:35;27.60;70.30
38936;DHT22;25541;47.458;9.644;2022-07-23T14:07:01;27.40;74.00
38936;DHT22;25541;47.458;9.644;2022-07-23T14:09:27;27.70;71.30
38936;DHT22;25541;47.458;9.644;2022-07-23T14:11:53;27.50;74.50
38936;DHT22;25541;47.458;9.644;2022-07-23T14:14:19;27.60;74.10
38936;DHT22;25541;47.458;9.644;2022-07-23T14:16:45;28.00;70.90
38936;DHT22;25541;47.458;9.644;2022-07-23T14:19:11;28.00;70.90
38936;DHT22;25541;47.458;9.644;2022-07-23T14:21:37;27.50;74.00
38936;DHT22;25541;47.458;9.644;2022-07-23T14:24:03;27.50;73.80
38936;DHT22;25541;47.458;9.644;2022-07-23T14:26:29;27.70;74.00
38936;DHT22;25541;47.458;9.644;2022-07-23T14:28:55;27.50;72.80
38936;DHT22;25541;47.458;9.644;2022-07-23T14:31:21;27.40;74.00
38936;DHT22;25541;47.458;9.644;2022-07-23T14:33:48;27.60;73.00
38936;DHT22;25541;47.458;9.644;2022-07-23T14:36:14;27.60;73.30
38936;DHT22;25541;47.458;9.644;2022-07-23T14:38:39;27.20;74.70
38936;DHT22;25541;47.458;9.644;2022-07-23T14:41:05;27.30;73.40
38936;DHT22;25541;47.458;9.644;2022-07-23T14:43:32;27.40;73.00
38936;DHT22;25541;47.458;9.644;2022-07-23T14:45:58;27.60;72.80
38936;DHT22;25541;47.458;9.644;2022-07-23T14:48:24;27.70;71.60
38936;DHT22;25541;47.458;9.644;2022-07-23T14:50:50;27.90;72.10
38936;DHT22;25541;47.458;9.644;2022-07-23T14:53:16;27.90;71.50
38936;DHT22;25541;47.458;9.644;2022-07-23T14:55:42;27.90;70.70
38936;DHT22;25541;47.458;9.644;2022-07-23T14:58:07;27.90;72.60
38936;DHT22;25541;47.458;9.644;2022-07-23T15:00:33;27.90;73.10
38936;DHT22;25541;47.458;9.644;2022-07-23T15:02:59;27.80;72.40
38936;DHT22;25541;47.458;9.644;2022-07-23T15:05:24;27.90;71.30
38936;DHT22;25541;47.458;9.644;2022-07-23T15:07:50;27.80;72.30
38936;DHT22;25541;47.458;9.644;2022-07-23T15:10:16;27.90;73.10
38936;DHT22;25541;47.458;9.644;2022-07-23T15:12:42;27.90;73.00
38936;DHT22;25541;47.458;9.644;2022-07-23T15:15:08;27.80;73.40
38936;DHT22;25541;47.458;9.644;2022-07-23T15:17:34;27.90;71.80
38936;DHT22;25541;47.458;9.644;2022-07-23T15:20:00;27.80;70.90
38936;DHT22;25541;47.458;9.644;2022-07-23T15:22:25;27.70;71.40
38936;DHT22;25541;47.458;9.644;2022-07-23T15:24:51;27.60;72.40
38936;DHT22;25541;47.458;9.644;2022-07-23T15:27:17;27.60;73.10
38936;DHT22;25541;47.458;9.644;2022-07-23T15:29:44;27.40;72.80
38936;DHT22;25541;47.458;9.644;2022-07-23T15:32:10;26.90;73.60
38936;DHT22;25541;47.458;9.644;2022-07-23T15:34:37;27.10;74.10
38936;DHT22;25541;47.458;9.644;2022-07-23T15:37:03;27.50;72.90
38936;DHT22;25541;47.458;9.644;2022-07-23T15:39:31;27.60;72.40
38936;DHT22;25541;47.458;9.644;2022-07-23T15:42:01;27.60;71.70
38936;DHT22;25541;47.458;9.644;2022-07-23T15:44:27;27.80;73.00
38936;DHT22;25541;47.458;9.644;2022-07-23T15:46:53;27.50;73.10
38936;DHT22;25541;47.458;9.644;2022-07-23T15:49:20;26.90;73.50
38936;DHT22;25541;47.458;9.644;2022-07-23T15:51:47;26.80;73.60
38936;DHT22;25541;47.458;9.644;2022-07-23T15:54:12;26.60;74.80
38936;DHT22;25541;47.458;9.644;2022-07-23T15:56:38;26.50;75.00
38936;DHT22;25541;47.458;9.644;2022-07-23T15:59:04;26.60;74.50
38936;DHT22;25541;47.458;9.644;2022-07-23T16:01:30;26.50;75.70
38936;DHT22;25541;47.458;9.644;2022-07-23T16:03:56;26.50;75.40
38936;DHT22;25541;47.458;9.644;2022-07-23T16:06:25;26.50;75.30
38936;DHT22;25541;47.458;9.644;2022-07-23T16:08:51;26.80;73.40
38936;DHT22;25541;47.458;9.644;2022-07-23T16:11:17;26.60;75.90
38936;DHT22;25541;47.458;9.644;2022-07-23T16:13:43;26.90;75.20
38936;DHT22;25541;47.458;9.644;2022-07-23T16:16:10;27.00;75.70
38936;DHT22;25541;47.458;9.644;2022-07-23T16:18:37;27.00;74.00
38936;DHT22;25541;47.458;9.644;2022-07-23T16:21:03;27.00;75.20
38936;DHT22;25541;47.458;9.644;2022-07-23T16:23:28;26.70;74.80
38936;DHT22;25541;47.458;9.644;2022-07-23T16:25:54;26.30;77.70
38936;DHT22;25541;47.458;9.644;2022-07-23T16:28:20;26.20;77.40
38936;DHT22;25541;47.458;9.644;2022-07-23T16:30:46;26.20;77.70
38936;DHT22;25541;47.458;9.644;2022-07-23T16:33:11;26.10;79.70
38936;DHT22;25541;47.458;9.644;2022-07-23T16:35:37;25.90;77.30
38936;DHT22;25541;47.458;9.644;2022-07-23T16:38:04;26.10;77.10
38936;DHT22;25541;47.458;9.644;2022-07-23T16:40:31;26.30;75.70
38936;DHT22;25541;47.458;9.644;2022-07-23T16:42:57;26.50;75.80
38936;DHT22;25541;47.458;9.644;2022-07-23T16:45:24;26.70;78.40
38936;DHT22;25541;47.458;9.644;2022-07-23T16:47:49;27.00;78.00
38936;DHT22;25541;47.458;9.644;2022-07-23T16:50:16;26.90;75.60
38936;DHT22;25541;47.458;9.644;2022-07-23T16:52:42;26.80;74.70
38936;DHT22;25541;47.458;9.644;2022-07-23T16:55:09;26.80;75.20
38936;DHT22;25541;47.458;9.644;2022-07-23T16:57:35;27.10;75.90
38936;DHT22;25541;47.458;9.644;2022-07-23T17:00:03;27.40;72.90
38936;DHT22;25541;47.458;9.644;2022-07-23T17:02:29;27.60;71.80
38936;DHT22;25541;47.458;9.644;2022-07-23T17:04:55;27.30;72.60
38936;DHT22;25541;47.458;9.644;2022-07-23T17:07:21;27.30;72.40
38936;DHT22;25541;47.458;9.644;2022-07-23T17:09:46;27.30;72.30
38936;DHT22;25541;47.458;9.644;2022-07-23T17:12:13;27.00;73.50
38936;DHT22;25541;47.458;9.644;2022-07-23T17:14:38;27.00;73.20
38936;DHT22;25541;47.458;9.644;2022-07-23T17:17:04;26.60;73.60
38936;DHT22;25541;47.458;9.644;2022-07-23T17:19:31;26.10;76.70
38936;DHT22;25541;47.458;9.644;2022-07-23T17:21:56;25.80;77.90
38936;DHT22;25541;47.458;9.644;2022-07-23T17:24:22;25.80;78.40
38936;DHT22;25541;47.458;9.644;2022-07-23T17:26:48;26.00;79.70
38936;DHT22;25541;47.458;9.644;2022-07-23T17:29:14;26.20;78.20
38936;DHT22;25541;47.458;9.644;2022-07-23T17:31:40;26.30;77.80
38936;DHT22;25541;47.458;9.644;2022-07-23T17:34:06;26.10;77.80
38936;DHT22;25541;47.458;9.644;2022-07-23T17:36:34;26.10;78.20
38936;DHT22;25541;47.458;9.644;2022-07-23T17:39:00;26.20;76.90
38936;DHT22;25541;47.458;9.644;2022-07-23T17:41:26;26.30;77.00
38936;DHT22;25541;47.458;9.644;2022-07-23T17:43:52;26.30;76.60
38936;DHT22;25541;47.458;9.644;2022-07-23T17:46:18;26.20;76.00
38936;DHT22;25541;47.458;9.644;2022-07-23T17:48:44;26.10;77.30
38936;DHT22;25541;47.458;9.644;2022-07-23T17:51:10;25.90;78.60
38936;DHT22;25541;47.458;9.644;2022-07-23T17:53:35;25.90;78.50
38936;DHT22;25541;47.458;9.644;2022-07-23T17:56:01;25.90;79.70
38936;DHT22;25541;47.458;9.644;2022-07-23T17:58:29;25.90;80.10
38936;DHT22;25541;47.458;9.644;2022-07-23T18:00:55;26.00;80.00
38936;DHT22;25541;47.458;9.644;2022-07-23T18:03:21;26.10;80.20
38936;DHT22;25541;47.458;9.644;2022-07-23T18:05:46;26.10;80.50
38936;DHT22;25541;47.458;9.644;2022-07-23T18:08:12;26.10;80.80
38936;DHT22;25541;47.458;9.644;2022-07-23T18:10:38;25.90;81.00
38936;DHT22;25541;47.458;9.644;2022-07-23T18:13:05;25.80;83.20
38936;DHT22;25541;47.458;9.644;2022-07-23T18:15:31;25.80;83.00
38936;DHT22;25541;47.458;9.644;2022-07-23T18:17:57;25.60;83.00
38936;DHT22;25541;47.458;9.644;2022-07-23T18:20:23;25.60;83.30
38936;DHT22;25541;47.458;9.644;2022-07-23T18:22:49;25.60;83.10
38936;DHT22;25541;47.458;9.644;2022-07-23T18:25:15;25.60;83.30
38936;DHT22;25541;47.458;9.644;2022-07-23T18:27:41;25.60;82.30
38936;DHT22;25541;47.458;9.644;2022-07-23T18:30:08;25.60;82.60
38936;DHT22;25541;47.458;9.644;2022-07-23T18:32:35;25.50;82.80
38936;DHT22;25541;47.458;9.644;2022-07-23T18:35:02;25.60;82.10
38936;DHT22;25541;47.458;9.644;2022-07-23T18:37:28;25.50;82.90
38936;DHT22;25541;47.458;9.644;2022-07-23T18:39:53;25.30;82.60
38936;DHT22;25541;47.458;9.644;2022-07-23T18:42:19;25.30;83.00
38936;DHT22;25541;47.458;9.644;2022-07-23T18:44:45;25.20;83.20
38936;DHT22;25541;47.458;9.644;2022-07-23T18:47:11;25.20;83.60
38936;DHT22;25541;47.458;9.644;2022-07-23T18:49:37;25.20;83.10
38936;DHT22;25541;47.458;9.644;2022-07-23T18:52:03;25.10;84.00
38936;DHT22;25541;47.458;9.644;2022-07-23T18:54:29;25.10;83.50
38936;DHT22;25541;47.458;9.644;2022-07-23T18:56:55;25.10;83.40
38936;DHT22;25541;47.458;9.644;2022-07-23T18:59:20;25.10;84.00
38936;DHT22;25541;47.458;9.644;2022-07-23T19:01:46;25.10;84.40
38936;DHT22;25541;47.458;9.644;2022-07-23T19:04:13;25.00;84.30